KPIA/PIA METAR and TAF weather

Enter ICAO airport designator
Station Type Date Time Source
KPIA METAR 2019/12/14 16:54 UTC NOAA

KPIA 141654Z 30011G16KT 10SM OVC012 M01/M04 A2981 RMK AO2 SLP102 T10111044


Station Type Date Time Source
KPIA Decoded METAR 2019/12/14 16:54 UTC NOAA

GREATER PEORIA REGIONAL AIRPORT , IL, United States (KPIA) 40-40N 89-41W 205M
Dec 14, 2019 - 11:54 AM EST / 2019.12.14 1654 UTC
Wind: from the WNW (300 degrees) at 13 MPH (11 KT) gusting to 18 MPH (16 KT):0
Visibility: 10 mile(s):0
Sky conditions: overcast
Temperature: 30.0 F (-1.1 C)
Windchill: 19 F (-7 C):1
Dew Point: 24.1 F (-4.4 C)
Relative Humidity: 78%
Pressure (altimeter): 29.81 in. Hg (1009 hPa)
ob: KPIA 141654Z 30011G16KT 10SM OVC012 M01/M04 A2981 RMK AO2 SLP102 T10111044
cycle: 17

Station Type Date Time Source
KPIA TAF 2019/12/14 18:24 UTC NOAA

TAF KPIA 141720Z 1418/1518 31011G17KT P6SM OVC015
FM150100 31011KT P6SM BKN025
FM150800 31006KT P6SM BKN120

Example: see airport list